KTCL/TCL METAR and TAF weather

Enter ICAO airport designator
Station Type Date Time Source
KTCL METAR 2020/01/27 10:53 UTC NOAA

KTCL 271053Z AUTO 00000KT 4SM BR OVC003 09/08 A2998 RMK AO2 SLP152 T00940083


Station Type Date Time Source
KTCL Decoded METAR 2020/01/27 10:53 UTC NOAA

TUSCALOOSA REGIONAL AIRPORT, AL, United States (KTCL) 33-13N 087-37W
Jan 27, 2020 - 05:53 AM EST / 2020.01.27 1053 UTC
Wind: Calm:0
Visibility: 4 mile(s):0
Sky conditions: overcast
Weather: mist
Temperature: 48.9 F (9.4 C)
Dew Point: 46.9 F (8.3 C)
Relative Humidity: 92%
Pressure (altimeter): 29.98 in. Hg (1015 hPa)
ob: KTCL 271053Z AUTO 00000KT 4SM BR OVC003 09/08 A2998 RMK AO2 SLP152 T00940083
cycle: 11

Station Type Date Time Source
KTCL TAF 2020/01/27 06:22 UTC NOAA

TAF KTCL 270520Z 2706/2806 20005KT P6SM VCSH OVC025
FM270900 00000KT 5SM -DZ BR OVC007
FM271300 VRB03KT 6SM -DZ BR OVC006
FM271600 30006KT P6SM OVC015
FM272100 32005KT P6SM SCT050

Example: see airport list